createdAt,value
2023-02-13T00:00:50.278Z,-2.84
2023-02-13T00:01:53.806Z,-2.81
2023-02-13T00:02:56.362Z,-2.78
2023-02-13T00:04:00.234Z,-2.78
2023-02-13T00:05:02.627Z,-2.76
2023-02-13T00:06:05.081Z,-2.71
2023-02-13T00:07:07.651Z,-2.69
2023-02-13T00:08:10.223Z,-2.74
2023-02-13T00:09:12.642Z,-2.78
2023-02-13T00:10:15.190Z,-2.79
2023-02-13T00:11:17.570Z,-2.80
2023-02-13T00:12:19.915Z,-2.83
2023-02-13T00:13:22.332Z,-2.80
2023-02-13T00:14:24.885Z,-2.94
2023-02-13T00:15:27.492Z,-3.07
2023-02-13T00:16:29.882Z,-3.03
2023-02-13T00:17:32.853Z,-3.00
2023-02-13T00:18:37.567Z,-2.92
2023-02-13T00:19:40.205Z,-2.94
2023-02-13T00:20:42.496Z,-2.97
2023-02-13T00:21:44.911Z,-2.96
2023-02-13T00:22:47.491Z,-2.95
2023-02-13T00:23:49.788Z,-2.96
2023-02-13T00:24:52.216Z,-3.04
2023-02-13T00:25:54.599Z,-3.11
2023-02-13T00:26:56.957Z,-3.03
2023-02-13T00:27:59.725Z,-3.04
2023-02-13T00:29:03.184Z,-3.10
2023-02-13T00:30:06.357Z,-3.17
2023-02-13T00:31:11.348Z,-3.07
2023-02-13T00:32:14.960Z,-3.00
2023-02-13T00:33:17.498Z,-3.00
2023-02-13T00:34:21.126Z,-3.00
2023-02-13T00:35:23.510Z,-3.12
2023-02-13T00:36:27.769Z,-3.08
2023-02-13T00:37:31.038Z,-3.05
2023-02-13T00:38:33.940Z,-3.00
2023-02-13T00:39:36.371Z,-3.03
2023-02-13T00:40:38.920Z,-3.06
2023-02-13T00:41:42.755Z,-3.05
2023-02-13T00:42:45.291Z,-3.10
2023-02-13T00:43:49.301Z,-3.25
2023-02-13T00:44:51.755Z,-3.31
2023-02-13T00:45:54.298Z,-3.21
2023-02-13T00:46:58.051Z,-3.15
2023-02-13T00:48:01.013Z,-3.11
2023-02-13T00:49:03.364Z,-3.08
2023-02-13T00:50:06.547Z,-3.03
2023-02-13T00:51:09.906Z,-3.07
2023-02-13T00:52:12.786Z,-3.12
2023-02-13T00:53:15.242Z,-3.12
2023-02-13T00:54:17.698Z,-3.17
2023-02-13T00:55:20.567Z,-3.28
2023-02-13T00:56:23.164Z,-3.41
2023-02-13T00:57:25.499Z,-3.46
2023-02-13T00:58:27.942Z,-3.32
2023-02-13T00:59:30.360Z,-3.27
2023-02-13T01:00:32.754Z,-3.35
2023-02-13T01:01:35.232Z,-3.29
2023-02-13T01:02:37.769Z,-3.19
2023-02-13T01:03:41.040Z,-3.12
2023-02-13T01:04:43.463Z,-3.14
2023-02-13T01:05:46.679Z,-3.13
2023-02-13T01:06:49.214Z,-3.14
2023-02-13T01:07:52.592Z,-3.18
2023-02-13T01:08:54.949Z,-3.16
2023-02-13T01:09:57.321Z,-3.12
2023-02-13T01:11:00.177Z,-3.16
2023-02-13T01:12:02.661Z,-3.16
2023-02-13T01:13:05.258Z,-3.16
2023-02-13T01:14:08.600Z,-3.17
2023-02-13T01:15:11.144Z,-3.20
2023-02-13T01:16:16.089Z,-3.19
2023-02-13T01:17:18.506Z,-3.19
2023-02-13T01:18:21.193Z,-3.21
2023-02-13T01:19:23.717Z,-3.23
2023-02-13T01:20:29.150Z,-3.20
2023-02-13T01:21:31.759Z,-3.20
2023-02-13T01:22:34.443Z,-3.21
2023-02-13T01:23:39.228Z,-3.24
2023-02-13T01:24:41.824Z,-3.25
2023-02-13T01:25:44.478Z,-3.40
2023-02-13T01:26:46.892Z,-3.46
2023-02-13T01:27:49.551Z,-3.42
2023-02-13T01:28:58.591Z,-3.49
2023-02-13T01:30:01.256Z,-3.47
2023-02-13T01:31:05.756Z,-3.35
2023-02-13T01:32:08.405Z,-3.28
2023-02-13T01:33:12.050Z,-3.23
2023-02-13T01:34:14.356Z,-3.16
2023-02-13T01:35:17.381Z,-3.13
2023-02-13T01:36:20.022Z,-3.13
2023-02-13T01:37:22.494Z,-3.10
2023-02-13T01:38:24.974Z,-3.09
2023-02-13T01:39:28.387Z,-3.12
2023-02-13T01:40:32.035Z,-3.12
2023-02-13T01:41:36.050Z,-3.17
2023-02-13T01:42:39.117Z,-3.13
2023-02-13T01:44:26.643Z,-3.16
2023-02-13T01:45:30.920Z,-3.17
2023-02-13T01:46:38.848Z,-3.20
2023-02-13T01:47:49.377Z,-3.21
2023-02-13T01:48:56.281Z,-3.19
2023-02-13T01:50:07.724Z,-3.16
2023-02-13T01:51:16.401Z,-3.23
2023-02-13T01:52:18.858Z,-3.19
2023-02-13T01:53:35.242Z,-3.18
2023-02-13T01:54:37.638Z,-3.13
2023-02-13T01:55:52.981Z,-3.15
2023-02-13T01:57:01.216Z,-3.17
2023-02-13T01:58:09.763Z,-3.18
2023-02-13T01:59:19.146Z,-3.18
2023-02-13T02:00:22.661Z,-3.26
2023-02-13T02:01:28.236Z,-3.25
2023-02-13T02:02:37.308Z,-3.31
2023-02-13T02:03:51.887Z,-3.28
2023-02-13T02:04:54.439Z,-3.25
2023-02-13T02:05:59.337Z,-3.31
2023-02-13T02:07:08.800Z,-3.30
2023-02-13T02:08:13.200Z,-3.30
2023-02-13T02:09:22.869Z,-3.26
2023-02-13T02:10:25.616Z,-3.27
2023-02-13T02:11:46.282Z,-3.29
2023-02-13T02:12:58.934Z,-3.23
2023-02-13T02:14:03.220Z,-3.26
2023-02-13T02:15:10.140Z,-3.29
2023-02-13T02:16:13.269Z,-3.32
2023-02-13T02:17:16.622Z,-3.34
2023-02-13T02:18:24.720Z,-3.25
2023-02-13T02:19:53.219Z,-3.19
2023-02-13T02:21:11.103Z,-3.18
2023-02-13T02:22:45.489Z,-3.13
2023-02-13T02:24:11.632Z,-3.11
2023-02-13T02:25:51.450Z,-3.03
2023-02-13T02:27:22.891Z,-3.04
2023-02-13T02:28:46.552Z,-3.01
2023-02-13T02:29:58.146Z,-2.99
2023-02-13T02:31:16.570Z,-2.95
2023-02-13T02:32:55.599Z,-3.04
2023-02-13T02:34:09.083Z,-3.01
2023-02-13T02:35:27.753Z,-2.98
2023-02-13T02:36:30.100Z,-2.93
2023-02-13T02:37:52.266Z,-2.94
2023-02-13T02:39:21.335Z,-2.98
2023-02-13T02:40:42.036Z,-3.07
2023-02-13T02:41:53.724Z,-3.08
2023-02-13T02:43:06.328Z,-3.01
2023-02-13T02:44:33.889Z,-3.05
2023-02-13T02:45:43.226Z,-3.01
2023-02-13T02:47:17.473Z,-3.11
2023-02-13T02:48:52.391Z,-3.19
2023-02-13T02:50:34.865Z,-3.11
2023-02-13T02:52:08.977Z,-3.18
2023-02-13T02:53:42.257Z,-3.13
2023-02-13T02:55:09.189Z,-3.08
2023-02-13T02:56:35.086Z,-3.05
2023-02-13T02:58:04.275Z,-3.04
2023-02-13T02:59:33.038Z,-2.95
2023-02-13T03:00:58.114Z,-2.95
2023-02-13T03:02:21.000Z,-2.89
2023-02-13T03:03:45.006Z,-2.83
2023-02-13T03:05:10.453Z,-2.78
2023-02-13T03:06:17.794Z,-2.68
2023-02-13T03:07:20.852Z,-2.65
2023-02-13T03:08:43.469Z,-2.69
2023-02-13T03:10:28.489Z,-2.57
2023-02-13T03:11:49.748Z,-2.69
2023-02-13T03:13:16.354Z,-2.64
2023-02-13T03:14:20.986Z,-2.57
2023-02-13T03:15:27.221Z,-2.55
2023-02-13T03:16:48.484Z,-2.49
2023-02-13T03:18:09.499Z,-2.46
2023-02-13T03:19:48.971Z,-2.43
2023-02-13T03:21:25.891Z,-2.49
2023-02-13T03:22:46.959Z,-2.49
2023-02-13T03:23:52.112Z,-2.50
2023-02-13T03:25:12.841Z,-2.42
2023-02-13T03:26:45.732Z,-2.35
2023-02-13T03:28:38.621Z,-2.28
2023-02-13T03:30:09.145Z,-2.24
2023-02-13T03:31:11.476Z,-2.20
2023-02-13T03:32:13.845Z,-2.16
2023-02-13T03:33:27.153Z,-2.12
2023-02-13T03:34:54.648Z,-2.12
2023-02-13T03:36:34.401Z,-2.12
2023-02-13T03:37:54.823Z,-2.07
2023-02-13T03:39:19.868Z,-2.02
2023-02-13T03:40:26.676Z,-2.01
2023-02-13T03:41:38.121Z,-1.97
2023-02-13T03:42:53.162Z,-1.97
2023-02-13T03:44:01.411Z,-1.96
2023-02-13T03:45:30.234Z,-1.93
2023-02-13T03:46:37.838Z,-1.88
2023-02-13T03:47:43.102Z,-1.85
2023-02-13T03:49:05.024Z,-1.82
2023-02-13T03:50:10.027Z,-1.80
2023-02-13T03:51:18.021Z,-1.78
2023-02-13T03:52:50.244Z,-1.75
2023-02-13T03:53:57.106Z,-1.79
2023-02-13T03:55:24.171Z,-1.79
2023-02-13T03:56:48.393Z,-1.79
2023-02-13T03:58:11.963Z,-1.75
2023-02-13T03:59:27.625Z,-1.72
2023-02-13T04:00:41.060Z,-1.71
2023-02-13T04:01:53.683Z,-1.70
2023-02-13T04:03:05.201Z,-1.71
2023-02-13T04:04:29.197Z,-1.73
2023-02-13T04:05:35.498Z,-1.71
2023-02-13T04:06:48.037Z,-1.71
2023-02-13T04:07:50.593Z,-1.73
2023-02-13T04:08:53.049Z,-1.73
2023-02-13T04:10:00.688Z,-1.71
2023-02-13T04:11:17.077Z,-1.71
2023-02-13T04:12:26.230Z,-1.67
2023-02-13T04:13:39.613Z,-1.66
2023-02-13T04:14:50.037Z,-1.68
2023-02-13T04:16:06.523Z,-1.64
2023-02-13T04:17:22.092Z,-1.61
2023-02-13T04:18:28.760Z,-1.64
2023-02-13T04:19:33.014Z,-1.59
2023-02-13T04:20:35.533Z,-1.58
2023-02-13T04:21:40.563Z,-1.59
2023-02-13T04:22:47.564Z,-1.55
2023-02-13T04:23:49.950Z,-1.57
2023-02-13T04:24:52.285Z,-1.57
2023-02-13T04:26:03.824Z,-1.57
2023-02-13T04:27:06.265Z,-1.46
2023-02-13T04:28:08.956Z,-1.40
2023-02-13T04:29:11.362Z,-1.22
2023-02-13T04:30:14.312Z,-1.16
2023-02-13T04:31:16.805Z,-1.28
2023-02-13T04:32:19.178Z,-1.33
2023-02-13T04:33:21.749Z,-1.40
2023-02-13T04:34:24.113Z,-1.31
2023-02-13T04:35:26.683Z,-1.34
2023-02-13T04:36:29.840Z,-1.37
2023-02-13T04:37:32.180Z,-1.37
2023-02-13T04:38:34.513Z,-1.37
2023-02-13T04:39:37.040Z,-1.40
2023-02-13T04:40:39.376Z,-1.39
2023-02-13T04:41:41.695Z,-1.36
2023-02-13T04:42:44.018Z,-1.35
2023-02-13T04:43:46.359Z,-1.31
2023-02-13T04:44:48.820Z,-1.37
2023-02-13T04:45:51.828Z,-1.37
2023-02-13T04:46:54.231Z,-1.40
2023-02-13T04:47:58.781Z,-1.47
2023-02-13T04:49:01.203Z,-1.48
2023-02-13T04:50:03.989Z,-1.42
2023-02-13T04:51:06.903Z,-1.40
2023-02-13T04:52:09.257Z,-1.46
2023-02-13T04:53:11.618Z,-1.47
2023-02-13T04:54:14.046Z,-1.45
2023-02-13T04:55:16.453Z,-1.45
2023-02-13T04:56:20.001Z,-1.50
2023-02-13T04:57:22.916Z,-1.48
2023-02-13T04:58:25.533Z,-1.50
2023-02-13T04:59:28.029Z,-1.40
2023-02-13T05:00:30.559Z,-1.50
2023-02-13T05:01:33.033Z,-1.47
2023-02-13T05:02:35.502Z,-1.49
2023-02-13T05:03:37.822Z,-1.51
2023-02-13T05:04:40.205Z,-1.46
2023-02-13T05:05:42.596Z,-1.55
2023-02-13T05:06:45.132Z,-1.55
2023-02-13T05:07:47.659Z,-1.55
2023-02-13T05:08:50.254Z,-1.52
2023-02-13T05:09:52.740Z,-1.56
2023-02-13T05:10:55.169Z,-1.57
2023-02-13T05:11:57.790Z,-1.65
2023-02-13T05:13:01.259Z,-1.66
2023-02-13T05:14:03.601Z,-1.59
2023-02-13T05:15:06.953Z,-1.66
2023-02-13T05:16:09.598Z,-1.67
2023-02-13T05:17:12.575Z,-1.72
2023-02-13T05:18:15.713Z,-1.77
2023-02-13T05:19:18.256Z,-1.80
2023-02-13T05:20:21.273Z,-1.81
2023-02-13T05:21:42.493Z,-1.83
2023-02-13T05:23:08.564Z,-1.86
2023-02-13T05:24:10.924Z,-1.94
2023-02-13T05:25:13.174Z,-1.97
2023-02-13T05:26:15.691Z,-2.03
2023-02-13T05:27:18.182Z,-2.06
2023-02-13T05:28:39.331Z,-2.04
2023-02-13T05:29:42.251Z,-2.05
2023-02-13T05:30:44.790Z,-2.00
2023-02-13T05:31:54.930Z,-2.02
2023-02-13T05:32:57.348Z,-2.02
2023-02-13T05:33:59.688Z,-2.08
2023-02-13T05:35:04.329Z,-2.18
2023-02-13T05:36:07.542Z,-2.23
2023-02-13T05:37:09.891Z,-2.29
2023-02-13T05:38:12.194Z,-2.29
2023-02-13T05:39:15.514Z,-2.33
2023-02-13T05:40:17.988Z,-2.39
2023-02-13T05:41:20.317Z,-2.39
2023-02-13T05:42:22.630Z,-2.39
2023-02-13T05:43:25.073Z,-2.37
2023-02-13T05:44:27.483Z,-2.41
2023-02-13T05:45:29.863Z,-2.41
2023-02-13T05:46:32.403Z,-2.42
2023-02-13T05:47:34.785Z,-2.44
2023-02-13T05:48:37.667Z,-2.49
2023-02-13T05:49:40.165Z,-2.46
2023-02-13T05:50:42.604Z,-2.55
2023-02-13T05:51:46.662Z,-2.60
2023-02-13T05:52:49.256Z,-2.53
2023-02-13T05:53:51.808Z,-2.55
2023-02-13T05:54:54.125Z,-2.52
2023-02-13T05:55:56.864Z,-2.58
2023-02-13T05:56:59.652Z,-2.61
2023-02-13T05:58:02.970Z,-2.53
2023-02-13T05:59:06.033Z,-2.59
2023-02-13T06:00:09.000Z,-2.57
2023-02-13T06:01:11.621Z,-2.57
2023-02-13T06:02:13.980Z,-2.61
2023-02-13T06:03:16.338Z,-2.61
2023-02-13T06:04:18.859Z,-2.60
2023-02-13T06:05:21.316Z,-2.59
2023-02-13T06:06:24.438Z,-2.61
2023-02-13T06:07:26.825Z,-2.62
2023-02-13T06:08:29.577Z,-2.60
2023-02-13T06:09:31.977Z,-2.63
2023-02-13T06:10:34.600Z,-2.62
2023-02-13T06:11:37.090Z,-2.62
2023-02-13T06:12:39.576Z,-2.65
2023-02-13T06:13:42.411Z,-2.64
2023-02-13T06:14:45.807Z,-2.63
2023-02-13T06:15:48.871Z,-2.56
2023-02-13T06:16:51.642Z,-2.56
2023-02-13T06:17:54.185Z,-2.54
2023-02-13T06:18:56.513Z,-2.46
2023-02-13T06:19:59.105Z,-2.49
2023-02-13T06:21:02.280Z,-2.48
2023-02-13T06:22:04.682Z,-2.47
2023-02-13T06:23:07.103Z,-2.51
2023-02-13T06:24:09.679Z,-2.45
2023-02-13T06:25:13.622Z,-2.43
2023-02-13T06:26:15.937Z,-2.53
2023-02-13T06:27:18.394Z,-2.50
2023-02-13T06:28:20.792Z,-2.44
2023-02-13T06:29:23.149Z,-2.37
2023-02-13T06:30:25.674Z,-2.35
2023-02-13T06:31:28.214Z,-2.32
2023-02-13T06:32:30.655Z,-2.30
2023-02-13T06:33:32.982Z,-2.28
2023-02-13T06:34:35.381Z,-2.33
2023-02-13T06:35:37.943Z,-2.32
2023-02-13T06:36:41.990Z,-2.30
2023-02-13T06:37:45.037Z,-2.30
2023-02-13T06:38:47.638Z,-2.28
2023-02-13T06:39:50.005Z,-2.31
2023-02-13T06:40:52.788Z,-2.31
2023-02-13T06:41:55.139Z,-2.27
2023-02-13T06:42:57.512Z,-2.22
2023-02-13T06:44:00.316Z,-2.18
2023-02-13T06:45:03.560Z,-2.16
2023-02-13T06:46:07.522Z,-1.81
2023-02-13T06:47:10.153Z,-0.99
2023-02-13T06:48:14.644Z,-0.61
2023-02-13T06:49:17.239Z,-0.35
2023-02-13T06:50:19.612Z,0.05
2023-02-13T06:51:21.940Z,0.88
2023-02-13T06:52:24.414Z,1.81
2023-02-13T06:53:26.812Z,2.53
2023-02-13T06:54:45.960Z,2.65
2023-02-13T06:55:49.417Z,2.70
2023-02-13T06:56:51.961Z,2.57
2023-02-13T06:57:54.305Z,3.54
2023-02-13T06:58:56.711Z,4.16
2023-02-13T07:00:00.738Z,4.00
2023-02-13T07:01:03.288Z,4.24
2023-02-13T07:02:06.313Z,4.20
2023-02-13T07:03:10.904Z,3.67
2023-02-13T07:04:13.544Z,4.44
2023-02-13T07:05:16.030Z,4.32
2023-02-13T07:06:19.992Z,4.30
2023-02-13T07:07:23.007Z,4.78
2023-02-13T07:08:25.877Z,4.69
2023-02-13T07:09:28.616Z,4.91
2023-02-13T07:10:31.134Z,5.38
2023-02-13T07:11:33.462Z,4.84
2023-02-13T07:12:36.982Z,4.27
2023-02-13T07:13:39.282Z,4.17
2023-02-13T07:14:41.767Z,3.71
2023-02-13T07:15:44.344Z,3.30
2023-02-13T07:16:46.653Z,2.95
2023-02-13T07:17:48.986Z,3.96
2023-02-13T07:18:51.760Z,4.37
2023-02-13T07:19:54.625Z,4.17
2023-02-13T07:20:58.575Z,4.63
2023-02-13T07:22:01.171Z,4.31
2023-02-13T07:23:05.647Z,3.69
2023-02-13T07:24:08.424Z,3.48
2023-02-13T07:25:10.877Z,2.59
2023-02-13T07:26:13.338Z,2.13
2023-02-13T07:27:15.694Z,2.02
2023-02-13T07:28:18.196Z,1.73
2023-02-13T07:29:23.025Z,1.81
2023-02-13T07:30:25.608Z,1.41
2023-02-13T07:31:28.128Z,1.42
2023-02-13T07:32:30.769Z,1.50
2023-02-13T07:33:34.379Z,1.22
2023-02-13T07:34:36.657Z,0.93
2023-02-13T07:35:41.121Z,0.63
2023-02-13T07:36:46.990Z,0.63
2023-02-13T07:37:49.613Z,0.54
2023-02-13T07:38:52.039Z,0.51
2023-02-13T07:39:54.448Z,0.50
2023-02-13T07:41:01.123Z,0.39
2023-02-13T07:42:03.725Z,0.72
2023-02-13T07:43:06.048Z,0.90
2023-02-13T07:44:08.644Z,1.20
2023-02-13T07:45:12.122Z,1.66
2023-02-13T07:46:14.560Z,2.39
2023-02-13T07:47:18.997Z,3.37
2023-02-13T07:48:24.013Z,4.16
2023-02-13T07:49:26.695Z,4.38
2023-02-13T07:50:29.562Z,3.87
2023-02-13T07:51:32.136Z,3.94
2023-02-13T07:52:34.543Z,3.70
2023-02-13T07:53:36.888Z,4.30
2023-02-13T07:54:47.729Z,4.29
2023-02-13T07:55:50.217Z,3.95
2023-02-13T07:56:52.516Z,4.64
2023-02-13T07:57:55.546Z,4.07
2023-02-13T07:58:57.963Z,4.20
2023-02-13T08:00:00.514Z,3.84
2023-02-13T08:01:10.662Z,4.06
2023-02-13T08:02:15.208Z,3.71
2023-02-13T08:03:17.764Z,4.38
2023-02-13T08:04:20.300Z,5.73
2023-02-13T08:05:22.577Z,5.92
2023-02-13T08:06:25.215Z,6.71
2023-02-13T08:07:27.565Z,6.59
2023-02-13T08:08:29.868Z,7.15
2023-02-13T08:09:50.725Z,7.51
2023-02-13T08:11:11.462Z,7.38
2023-02-13T08:12:14.096Z,6.86
2023-02-13T08:13:17.279Z,6.53
2023-02-13T08:14:24.594Z,7.37
2023-02-13T08:15:26.929Z,6.59
2023-02-13T08:16:29.272Z,5.76
2023-02-13T08:17:31.699Z,6.38
2023-02-13T08:18:34.053Z,6.45
2023-02-13T08:19:36.363Z,6.18
2023-02-13T08:20:38.792Z,6.23
2023-02-13T08:21:41.560Z,6.10
2023-02-13T08:22:43.965Z,6.78
2023-02-13T08:23:46.834Z,6.27
2023-02-13T08:24:49.187Z,6.10
2023-02-13T08:25:51.559Z,5.46
2023-02-13T08:26:53.922Z,5.58
2023-02-13T08:27:56.760Z,5.73
2023-02-13T08:29:00.004Z,5.63
2023-02-13T08:30:03.449Z,5.66
2023-02-13T08:31:12.994Z,5.71
2023-02-13T08:32:15.416Z,5.66
2023-02-13T08:33:17.709Z,5.77
2023-02-13T08:34:20.032Z,5.75
2023-02-13T08:35:26.918Z,5.34
2023-02-13T08:36:29.559Z,4.69
2023-02-13T08:37:31.878Z,4.53
2023-02-13T08:38:34.857Z,4.51
2023-02-13T08:39:37.576Z,4.60
2023-02-13T08:40:41.259Z,4.39
2023-02-13T08:41:43.843Z,4.79
2023-02-13T08:42:46.268Z,5.20
2023-02-13T08:43:50.043Z,5.35
2023-02-13T08:44:52.364Z,5.07
2023-02-13T08:45:54.781Z,4.89
2023-02-13T08:46:57.171Z,5.18
2023-02-13T08:48:00.693Z,5.18
2023-02-13T08:49:03.322Z,5.55
2023-02-13T08:50:06.602Z,5.49
2023-02-13T08:51:10.908Z,5.47
2023-02-13T08:52:13.278Z,5.60
2023-02-13T08:53:15.830Z,5.36
2023-02-13T08:54:18.604Z,5.72
2023-02-13T08:55:21.110Z,5.45
2023-02-13T08:56:23.804Z,5.52
2023-02-13T08:57:26.173Z,6.03
2023-02-13T08:58:28.780Z,6.36
2023-02-13T08:59:31.475Z,6.71
2023-02-13T09:00:34.018Z,7.09
2023-02-13T09:01:36.359Z,7.23
2023-02-13T09:02:38.835Z,7.16
2023-02-13T09:03:41.576Z,6.85
2023-02-13T09:04:43.995Z,7.28
2023-02-13T09:05:47.786Z,7.18
2023-02-13T09:06:50.243Z,7.12
2023-02-13T09:07:52.732Z,7.15
2023-02-13T09:08:55.336Z,7.57
2023-02-13T09:09:57.800Z,7.46
2023-02-13T09:11:02.893Z,7.57
2023-02-13T09:12:05.727Z,7.14
2023-02-13T09:13:08.184Z,7.63
2023-02-13T09:14:10.692Z,7.48
2023-02-13T09:15:13.018Z,8.07
2023-02-13T09:16:16.049Z,8.00
2023-02-13T09:17:19.827Z,8.23
2023-02-13T09:18:22.330Z,8.55
2023-02-13T09:19:24.670Z,8.82
2023-02-13T09:20:27.149Z,8.55
2023-02-13T09:21:29.654Z,8.39
2023-02-13T09:22:32.061Z,8.29
2023-02-13T09:23:37.220Z,8.38
2023-02-13T09:24:39.544Z,8.29
2023-02-13T09:25:41.914Z,9.17
2023-02-13T09:26:44.485Z,8.25
2023-02-13T09:27:46.930Z,9.25
2023-02-13T09:28:49.690Z,9.53
2023-02-13T09:29:52.302Z,8.88
2023-02-13T09:30:55.211Z,9.12
2023-02-13T09:31:57.979Z,9.19
2023-02-13T09:33:00.486Z,9.34
2023-02-13T09:34:02.790Z,9.14
2023-02-13T09:35:06.723Z,9.37
2023-02-13T09:36:15.311Z,8.88
2023-02-13T09:37:17.724Z,9.78
2023-02-13T09:38:20.086Z,9.44
2023-02-13T09:39:22.938Z,10.02
2023-02-13T09:40:32.001Z,9.68
2023-02-13T09:41:39.978Z,9.94
2023-02-13T09:42:44.077Z,10.09
2023-02-13T09:43:51.572Z,10.00
2023-02-13T09:44:57.844Z,9.95
2023-02-13T09:46:07.403Z,9.91
2023-02-13T09:47:12.467Z,9.65
2023-02-13T09:48:23.368Z,10.03
2023-02-13T09:49:30.729Z,9.45
2023-02-13T09:50:35.235Z,9.58
2023-02-13T09:51:37.954Z,9.68
2023-02-13T09:52:43.484Z,9.32
2023-02-13T09:53:57.040Z,9.53
2023-02-13T09:54:59.415Z,9.11
2023-02-13T09:56:15.989Z,9.77
2023-02-13T09:57:47.916Z,9.66
2023-02-13T09:58:56.867Z,9.79
2023-02-13T10:00:13.559Z,10.24
2023-02-13T10:01:15.878Z,9.78
2023-02-13T10:02:30.424Z,9.94
2023-02-13T10:03:41.172Z,10.08
2023-02-13T10:05:03.841Z,10.33
2023-02-13T10:06:13.335Z,9.85
2023-02-13T10:07:46.084Z,9.65
2023-02-13T10:09:03.745Z,9.61
2023-02-13T10:10:34.104Z,10.34
2023-02-13T10:11:45.549Z,10.41
2023-02-13T10:13:10.818Z,10.62
2023-02-13T10:14:21.898Z,10.42
2023-02-13T10:16:05.773Z,10.18
2023-02-13T10:17:17.939Z,10.26
2023-02-13T10:18:25.722Z,10.49
2023-02-13T10:19:53.126Z,10.71
2023-02-13T10:21:02.435Z,10.74
2023-02-13T10:22:11.262Z,10.25
2023-02-13T10:23:22.802Z,10.46
2023-02-13T10:24:37.364Z,10.33
2023-02-13T10:26:01.022Z,10.54
2023-02-13T10:27:18.291Z,10.56
2023-02-13T10:28:40.626Z,10.75
2023-02-13T10:30:06.922Z,10.55
2023-02-13T10:31:15.353Z,10.29
2023-02-13T10:32:26.244Z,10.90
2023-02-13T10:33:40.566Z,10.74
2023-02-13T10:34:47.260Z,10.46
2023-02-13T10:36:01.449Z,10.39
2023-02-13T10:37:09.765Z,11.05
2023-02-13T10:38:16.843Z,10.68
2023-02-13T10:39:26.355Z,10.16
2023-02-13T10:40:38.261Z,9.86
2023-02-13T10:42:00.309Z,11.19
2023-02-13T10:43:10.548Z,10.52
2023-02-13T10:44:18.199Z,10.72
2023-02-13T10:45:36.046Z,11.23
2023-02-13T10:47:00.282Z,10.91
2023-02-13T10:48:15.512Z,10.80
2023-02-13T10:49:29.729Z,10.91
2023-02-13T10:51:00.887Z,11.00
2023-02-13T10:52:14.276Z,10.82
2023-02-13T10:53:31.549Z,10.55
2023-02-13T10:54:46.822Z,10.30
2023-02-13T10:56:17.756Z,11.11
2023-02-13T10:57:42.695Z,10.89
2023-02-13T10:59:15.224Z,11.07
2023-02-13T11:00:32.952Z,10.97
2023-02-13T11:02:03.259Z,10.16
2023-02-13T11:03:05.985Z,9.37
2023-02-13T11:04:15.478Z,9.44
2023-02-13T11:05:19.587Z,9.26
2023-02-13T11:06:21.898Z,9.61
2023-02-13T11:07:26.554Z,9.60
2023-02-13T11:08:34.737Z,9.48
2023-02-13T11:09:41.778Z,9.72
2023-02-13T11:10:44.229Z,9.75
2023-02-13T11:11:46.653Z,9.70
2023-02-13T11:12:49.555Z,10.06
2023-02-13T11:14:15.710Z,9.60
2023-02-13T11:15:32.074Z,9.85
2023-02-13T11:16:44.414Z,9.89
2023-02-13T11:17:47.518Z,10.31
2023-02-13T11:18:50.838Z,10.36
2023-02-13T11:19:56.488Z,10.29
2023-02-13T11:21:31.574Z,9.91
2023-02-13T11:22:42.700Z,9.84
2023-02-13T11:23:50.976Z,9.72
2023-02-13T11:24:58.611Z,9.61
2023-02-13T11:26:04.235Z,10.29
2023-02-13T11:27:13.860Z,9.92
2023-02-13T11:28:21.652Z,9.77
2023-02-13T11:29:31.089Z,10.14
2023-02-13T11:30:36.366Z,10.43
2023-02-13T11:31:38.829Z,10.38
2023-02-13T11:32:41.245Z,10.67
2023-02-13T11:33:43.684Z,10.83
2023-02-13T11:34:46.629Z,10.88
2023-02-13T11:35:49.431Z,10.96
2023-02-13T11:36:54.259Z,10.97
2023-02-13T11:38:21.312Z,10.63
2023-02-13T11:39:27.047Z,10.63
2023-02-13T11:40:32.489Z,10.67
2023-02-13T11:41:43.425Z,10.63
2023-02-13T11:42:49.566Z,10.57
2023-02-13T11:44:01.726Z,10.56
2023-02-13T11:45:20.538Z,10.93
2023-02-13T11:46:28.475Z,9.79
2023-02-13T11:47:34.446Z,10.34
2023-02-13T11:48:37.032Z,10.71
2023-02-13T11:49:39.668Z,11.00
2023-02-13T11:50:42.705Z,11.25
2023-02-13T11:51:48.838Z,10.48
2023-02-13T11:52:54.107Z,10.40
2023-02-13T11:54:01.088Z,10.32
2023-02-13T11:55:29.646Z,10.16
2023-02-13T11:57:04.054Z,10.78
2023-02-13T11:58:16.467Z,10.77
2023-02-13T11:59:23.478Z,10.78
2023-02-13T12:00:37.473Z,11.05
2023-02-13T12:01:40.029Z,10.69
2023-02-13T12:02:50.028Z,10.34
2023-02-13T12:04:06.643Z,10.16
2023-02-13T12:05:21.250Z,10.19
2023-02-13T12:06:23.587Z,10.50
2023-02-13T12:07:29.960Z,10.67
2023-02-13T12:08:36.016Z,10.84
2023-02-13T12:09:41.522Z,10.36
2023-02-13T12:10:43.985Z,10.48
2023-02-13T12:11:55.933Z,10.88
2023-02-13T12:12:58.189Z,11.16
2023-02-13T12:14:01.068Z,11.35
2023-02-13T12:15:17.954Z,10.94
2023-02-13T12:16:22.805Z,10.94
2023-02-13T12:17:32.517Z,11.33
2023-02-13T12:18:40.720Z,11.69
2023-02-13T12:19:46.172Z,11.50
2023-02-13T12:21:00.932Z,10.51
2023-02-13T12:22:35.136Z,10.18
2023-02-13T12:24:03.390Z,10.25
2023-02-13T12:25:27.247Z,10.48
2023-02-13T12:26:52.561Z,10.19
2023-02-13T12:28:10.491Z,10.04
2023-02-13T12:29:19.110Z,10.28
2023-02-13T12:30:49.829Z,9.56
2023-02-13T12:32:07.709Z,9.43
2023-02-13T12:33:47.401Z,9.82
2023-02-13T12:35:20.062Z,10.45
2023-02-13T12:36:34.420Z,10.26
2023-02-13T12:37:39.627Z,10.59
2023-02-13T12:39:10.294Z,11.03
2023-02-13T12:40:34.033Z,10.95
2023-02-13T12:41:50.138Z,10.88
2023-02-13T12:43:11.196Z,10.75
2023-02-13T12:44:51.017Z,11.13
2023-02-13T12:46:01.467Z,10.32
2023-02-13T12:47:16.930Z,10.04
2023-02-13T12:48:32.752Z,9.74
2023-02-13T12:50:17.021Z,9.27
2023-02-13T12:51:37.655Z,9.12
2023-02-13T12:52:58.363Z,9.15
2023-02-13T12:54:19.761Z,9.26
2023-02-13T12:55:28.326Z,9.41
2023-02-13T12:56:40.079Z,9.37
2023-02-13T12:57:56.847Z,9.58
2023-02-13T12:59:18.746Z,9.56
2023-02-13T13:00:40.938Z,9.00
2023-02-13T13:01:49.500Z,8.61
2023-02-13T13:03:10.743Z,8.59
2023-02-13T13:04:23.850Z,9.01
2023-02-13T13:05:30.225Z,9.34
2023-02-13T13:06:35.790Z,9.71
2023-02-13T13:07:59.235Z,9.95
2023-02-13T13:09:19.964Z,9.84
2023-02-13T13:10:31.514Z,10.21
2023-02-13T13:11:53.467Z,9.83
2023-02-13T13:13:07.964Z,10.03
2023-02-13T13:14:25.741Z,9.83
2023-02-13T13:15:49.334Z,10.32
2023-02-13T13:17:24.489Z,10.70
2023-02-13T13:19:01.869Z,10.82
2023-02-13T13:20:09.580Z,10.39
2023-02-13T13:21:38.407Z,9.99
2023-02-13T13:23:31.347Z,10.03
2023-02-13T13:24:55.935Z,10.24
2023-02-13T13:26:03.947Z,10.59
2023-02-13T13:27:17.947Z,10.36
2023-02-13T13:28:28.552Z,10.49
2023-02-13T13:29:57.506Z,10.40
2023-02-13T13:31:01.135Z,9.92
2023-02-13T13:32:07.544Z,9.91
2023-02-13T13:33:20.228Z,9.88
2023-02-13T13:34:27.100Z,9.88
2023-02-13T13:35:30.689Z,9.83
2023-02-13T13:36:56.534Z,9.67
2023-02-13T13:38:06.656Z,9.67
2023-02-13T13:39:27.505Z,9.81
2023-02-13T13:40:52.678Z,9.56
2023-02-13T13:42:02.580Z,9.37
2023-02-13T13:43:20.761Z,9.38
2023-02-13T13:44:55.397Z,9.66
2023-02-13T13:46:04.048Z,9.74
2023-02-13T13:47:28.033Z,9.52
2023-02-13T13:48:42.365Z,9.90
2023-02-13T13:49:54.296Z,10.05
2023-02-13T13:50:57.725Z,10.04
2023-02-13T13:52:21.168Z,10.00
2023-02-13T13:53:24.077Z,9.76
2023-02-13T13:54:34.998Z,9.48
2023-02-13T13:55:58.545Z,9.09
2023-02-13T13:57:04.898Z,9.39
2023-02-13T13:58:22.433Z,9.27
2023-02-13T13:59:33.678Z,9.25
2023-02-13T14:00:36.408Z,9.35
2023-02-13T14:01:39.100Z,9.37
2023-02-13T14:02:59.514Z,8.93
2023-02-13T14:04:04.657Z,8.57
2023-02-13T14:05:27.588Z,8.61
2023-02-13T14:06:44.893Z,7.97
2023-02-13T14:07:50.260Z,7.96
2023-02-13T14:08:59.682Z,8.23
2023-02-13T14:10:02.752Z,8.13
2023-02-13T14:11:05.281Z,8.30
2023-02-13T14:12:34.717Z,8.02
2023-02-13T14:13:40.445Z,8.07
2023-02-13T14:14:46.280Z,8.16
2023-02-13T14:15:51.803Z,8.44
2023-02-13T14:17:04.639Z,8.49
2023-02-13T14:18:12.576Z,8.60
2023-02-13T14:19:43.510Z,8.54
2023-02-13T14:20:51.763Z,8.62
2023-02-13T14:22:15.689Z,8.62
2023-02-13T14:23:29.142Z,8.68
2023-02-13T14:24:32.195Z,8.50
2023-02-13T14:25:34.693Z,8.49
2023-02-13T14:26:39.580Z,8.34
2023-02-13T14:27:43.287Z,8.28
2023-02-13T14:28:52.078Z,8.38
2023-02-13T14:29:55.484Z,8.49
2023-02-13T14:31:08.105Z,8.30
2023-02-13T14:32:20.203Z,8.18
2023-02-13T14:33:31.407Z,8.13
2023-02-13T14:34:37.544Z,7.81
2023-02-13T14:35:40.092Z,7.98
2023-02-13T14:36:46.261Z,8.09
2023-02-13T14:37:54.708Z,8.22
2023-02-13T14:39:00.368Z,8.32
2023-02-13T14:40:11.333Z,7.93
2023-02-13T14:41:51.540Z,8.08
2023-02-13T14:43:07.388Z,7.86
2023-02-13T14:44:19.435Z,7.78
2023-02-13T14:45:27.549Z,7.77
2023-02-13T14:46:41.362Z,7.91
2023-02-13T14:47:55.663Z,7.64
2023-02-13T14:49:07.752Z,7.36
2023-02-13T14:50:36.288Z,7.27
2023-02-13T14:51:52.123Z,7.40
2023-02-13T14:52:57.683Z,7.14
2023-02-13T14:54:07.015Z,7.16
2023-02-13T14:55:17.122Z,7.05
2023-02-13T14:56:23.581Z,6.94
2023-02-13T14:57:49.250Z,6.78
2023-02-13T14:59:14.877Z,6.85